sensor_id;sensor_type;location;lat;lon;timestamp;pressure;altitude;pressure_sealevel;temperature;humidity
37848;BME280;23688;33.130;-117.188;2023-05-09T00:00:43;99589.97;;;18.34;80.97
37848;BME280;23688;33.130;-117.188;2023-05-09T00:03:10;99590.47;;;18.04;83.09
37848;BME280;23688;33.130;-117.188;2023-05-09T00:05:37;99587.41;;;18.42;84.04
37848;BME280;23688;33.130;-117.188;2023-05-09T00:08:04;99584.84;;;18.46;81.62
37848;BME280;23688;33.130;-117.188;2023-05-09T00:10:30;99595.16;;;18.31;83.21
37848;BME280;23688;33.130;-117.188;2023-05-09T00:12:56;99593.38;;;18.28;83.25
37848;BME280;23688;33.130;-117.188;2023-05-09T00:15:26;99590.81;;;18.31;82.89
37848;BME280;23688;33.130;-117.188;2023-05-09T00:17:53;99592.41;;;18.20;84.23
37848;BME280;23688;33.130;-117.188;2023-05-09T00:20:20;99583.94;;;17.75;84.41
37848;BME280;23688;33.130;-117.188;2023-05-09T00:22:46;99588.78;;;17.46;87.91
37848;BME280;23688;33.130;-117.188;2023-05-09T00:25:12;99585.50;;;17.05;90.71
37848;BME280;23688;33.130;-117.188;2023-05-09T00:27:38;99591.38;;;16.90;93.87
37848;BME280;23688;33.130;-117.188;2023-05-09T00:30:05;99581.47;;;17.28;92.10
37848;BME280;23688;33.130;-117.188;2023-05-09T00:32:32;99588.66;;;17.40;88.88
37848;BME280;23688;33.130;-117.188;2023-05-09T00:34:59;99588.00;;;16.97;91.85
37848;BME280;23688;33.130;-117.188;2023-05-09T00:37:25;99583.53;;;16.95;93.28
37848;BME280;23688;33.130;-117.188;2023-05-09T00:39:51;99572.34;;;17.03;94.13
37848;BME280;23688;33.130;-117.188;2023-05-09T00:42:18;99575.16;;;17.16;94.12
37848;BME280;23688;33.130;-117.188;2023-05-09T00:44:44;99578.75;;;17.21;92.07
37848;BME280;23688;33.130;-117.188;2023-05-09T00:47:10;99576.72;;;17.03;93.15
37848;BME280;23688;33.130;-117.188;2023-05-09T00:49:37;99590.50;;;16.91;92.02
37848;BME280;23688;33.130;-117.188;2023-05-09T00:52:04;99581.22;;;17.10;91.67
37848;BME280;23688;33.130;-117.188;2023-05-09T00:54:30;99585.25;;;17.44;89.98
37848;BME280;23688;33.130;-117.188;2023-05-09T00:56:56;99582.50;;;17.37;89.49
37848;BME280;23688;33.130;-117.188;2023-05-09T00:59:25;99577.06;;;17.26;88.09
37848;BME280;23688;33.130;-117.188;2023-05-09T01:01:51;99562.09;;;17.19;89.77
37848;BME280;23688;33.130;-117.188;2023-05-09T01:04:17;99566.53;;;17.23;89.74
37848;BME280;23688;33.130;-117.188;2023-05-09T01:07:03;99574.59;;;17.35;88.00
37848;BME280;23688;33.130;-117.188;2023-05-09T01:15:30;99553.31;;;17.76;87.20
37848;BME280;23688;33.130;-117.188;2023-05-09T01:18:25;99550.47;;;17.61;85.53
37848;BME280;23688;33.130;-117.188;2023-05-09T01:21:04;99557.97;;;17.36;87.22
37848;BME280;23688;33.130;-117.188;2023-05-09T01:31:47;99558.31;;;17.01;90.43
37848;BME280;23688;33.130;-117.188;2023-05-09T01:34:15;99559.09;;;16.96;91.03
37848;BME280;23688;33.130;-117.188;2023-05-09T01:36:43;99551.34;;;17.03;91.44
37848;BME280;23688;33.130;-117.188;2023-05-09T01:39:13;99552.22;;;17.04;89.07
37848;BME280;23688;33.130;-117.188;2023-05-09T01:41:42;99553.22;;;16.60;90.32
37848;BME280;23688;33.130;-117.188;2023-05-09T01:44:10;99555.00;;;16.14;94.49
37848;BME280;23688;33.130;-117.188;2023-05-09T01:46:36;99551.75;;;16.27;94.48
37848;BME280;23688;33.130;-117.188;2023-05-09T01:49:05;99547.69;;;16.45;94.22
37848;BME280;23688;33.130;-117.188;2023-05-09T01:51:34;99542.31;;;16.37;94.77
37848;BME280;23688;33.130;-117.188;2023-05-09T01:54:02;99544.66;;;16.23;94.40
37848;BME280;23688;33.130;-117.188;2023-05-09T01:56:31;99555.28;;;15.87;96.47
37848;BME280;23688;33.130;-117.188;2023-05-09T01:58:59;99558.09;;;15.95;96.29
37848;BME280;23688;33.130;-117.188;2023-05-09T02:01:26;99564.44;;;16.08;95.81
37848;BME280;23688;33.130;-117.188;2023-05-09T02:03:55;99554.81;;;15.67;97.95
37848;BME280;23688;33.130;-117.188;2023-05-09T02:06:22;99554.81;;;15.66;98.10
37848;BME280;23688;33.130;-117.188;2023-05-09T02:08:50;99555.47;;;15.95;97.40
37848;BME280;23688;33.130;-117.188;2023-05-09T02:11:16;99543.44;;;15.63;98.39
37848;BME280;23688;33.130;-117.188;2023-05-09T02:13:43;99544.00;;;15.50;99.94
37848;BME280;23688;33.130;-117.188;2023-05-09T02:16:11;99551.31;;;15.27;100.00
37848;BME280;23688;33.130;-117.188;2023-05-09T02:18:38;99556.38;;;15.19;100.00
37848;BME280;23688;33.130;-117.188;2023-05-09T02:21:05;99547.28;;;15.04;100.00
37848;BME280;23688;33.130;-117.188;2023-05-09T02:23:31;99552.97;;;15.22;100.00
37848;BME280;23688;33.130;-117.188;2023-05-09T02:25:57;99549.19;;;15.11;100.00
37848;BME280;23688;33.130;-117.188;2023-05-09T02:28:25;99553.06;;;15.27;100.00
37848;BME280;23688;33.130;-117.188;2023-05-09T02:30:56;99549.69;;;15.32;100.00
37848;BME280;23688;33.130;-117.188;2023-05-09T02:33:23;99552.00;;;15.58;100.00
37848;BME280;23688;33.130;-117.188;2023-05-09T02:35:51;99555.41;;;15.54;100.00
37848;BME280;23688;33.130;-117.188;2023-05-09T02:38:18;99554.72;;;15.61;100.00
37848;BME280;23688;33.130;-117.188;2023-05-09T02:40:46;99551.00;;;15.51;100.00
37848;BME280;23688;33.130;-117.188;2023-05-09T02:43:13;99552.09;;;15.61;100.00
37848;BME280;23688;33.130;-117.188;2023-05-09T02:45:39;99553.91;;;15.63;100.00
37848;BME280;23688;33.130;-117.188;2023-05-09T02:48:06;99549.63;;;15.69;99.94
37848;BME280;23688;33.130;-117.188;2023-05-09T02:50:33;99561.91;;;15.70;100.00
37848;BME280;23688;33.130;-117.188;2023-05-09T02:52:59;99564.25;;;15.59;100.00
37848;BME280;23688;33.130;-117.188;2023-05-09T02:55:25;99568.84;;;15.69;100.00
37848;BME280;23688;33.130;-117.188;2023-05-09T02:57:53;99569.69;;;15.68;99.54
37848;BME280;23688;33.130;-117.188;2023-05-09T03:00:19;99564.97;;;15.52;100.00
37848;BME280;23688;33.130;-117.188;2023-05-09T03:02:47;99573.38;;;15.38;100.00
37848;BME280;23688;33.130;-117.188;2023-05-09T03:05:14;99564.47;;;15.30;100.00
37848;BME280;23688;33.130;-117.188;2023-05-09T03:07:40;99566.50;;;15.42;100.00
37848;BME280;23688;33.130;-117.188;2023-05-09T03:10:07;99578.16;;;15.58;100.00
37848;BME280;23688;33.130;-117.188;2023-05-09T03:12:36;99580.06;;;15.65;100.00
37848;BME280;23688;33.130;-117.188;2023-05-09T03:15:04;99579.19;;;15.65;100.00
37848;BME280;23688;33.130;-117.188;2023-05-09T03:17:31;99580.78;;;15.58;100.00
37848;BME280;23688;33.130;-117.188;2023-05-09T03:19:58;99584.28;;;15.57;100.00
37848;BME280;23688;33.130;-117.188;2023-05-09T03:22:24;99584.31;;;15.58;100.00
37848;BME280;23688;33.130;-117.188;2023-05-09T03:24:51;99582.50;;;15.56;99.45
37848;BME280;23688;33.130;-117.188;2023-05-09T03:27:18;99571.03;;;15.51;100.00
37848;BME280;23688;33.130;-117.188;2023-05-09T03:29:44;99576.03;;;15.40;100.00
37848;BME280;23688;33.130;-117.188;2023-05-09T03:32:11;99577.41;;;15.24;100.00
37848;BME280;23688;33.130;-117.188;2023-05-09T03:34:37;99579.69;;;15.10;100.00
37848;BME280;23688;33.130;-117.188;2023-05-09T03:37:03;99574.47;;;15.10;100.00
37848;BME280;23688;33.130;-117.188;2023-05-09T03:39:29;99586.72;;;15.13;100.00
37848;BME280;23688;33.130;-117.188;2023-05-09T03:41:56;99590.78;;;15.00;100.00
37848;BME280;23688;33.130;-117.188;2023-05-09T03:44:22;99595.47;;;14.80;100.00
37848;BME280;23688;33.130;-117.188;2023-05-09T03:46:49;99582.13;;;14.69;100.00
37848;BME280;23688;33.130;-117.188;2023-05-09T03:49:15;99588.56;;;14.82;100.00
37848;BME280;23688;33.130;-117.188;2023-05-09T03:51:41;99587.97;;;14.92;100.00
37848;BME280;23688;33.130;-117.188;2023-05-09T03:54:08;99581.34;;;14.72;100.00
37848;BME280;23688;33.130;-117.188;2023-05-09T03:56:34;99570.19;;;14.47;100.00
37848;BME280;23688;33.130;-117.188;2023-05-09T03:59:01;99573.31;;;14.64;100.00
37848;BME280;23688;33.130;-117.188;2023-05-09T04:01:27;99576.97;;;14.72;100.00
37848;BME280;23688;33.130;-117.188;2023-05-09T04:03:54;99583.88;;;14.69;100.00
37848;BME280;23688;33.130;-117.188;2023-05-09T04:06:22;99578.66;;;14.69;100.00
37848;BME280;23688;33.130;-117.188;2023-05-09T04:08:48;99583.75;;;14.64;100.00
37848;BME280;23688;33.130;-117.188;2023-05-09T04:11:15;99584.44;;;14.57;100.00
37848;BME280;23688;33.130;-117.188;2023-05-09T04:13:41;99590.47;;;14.54;100.00
37848;BME280;23688;33.130;-117.188;2023-05-09T04:16:08;99572.94;;;14.52;100.00
37848;BME280;23688;33.130;-117.188;2023-05-09T04:18:37;99592.47;;;14.65;100.00
37848;BME280;23688;33.130;-117.188;2023-05-09T04:21:07;99601.88;;;14.58;100.00
37848;BME280;23688;33.130;-117.188;2023-05-09T04:23:33;99600.91;;;14.54;100.00
37848;BME280;23688;33.130;-117.188;2023-05-09T04:26:00;99596.31;;;14.47;100.00
37848;BME280;23688;33.130;-117.188;2023-05-09T04:28:26;99594.50;;;14.45;100.00
37848;BME280;23688;33.130;-117.188;2023-05-09T04:30:53;99600.03;;;14.54;100.00
37848;BME280;23688;33.130;-117.188;2023-05-09T04:33:19;99600.09;;;14.57;100.00
37848;BME280;23688;33.130;-117.188;2023-05-09T04:35:46;99603.53;;;14.54;100.00
37848;BME280;23688;33.130;-117.188;2023-05-09T04:38:13;99608.66;;;14.53;100.00
37848;BME280;23688;33.130;-117.188;2023-05-09T04:40:39;99613.16;;;14.57;100.00
37848;BME280;23688;33.130;-117.188;2023-05-09T04:43:06;99608.94;;;14.62;100.00
37848;BME280;23688;33.130;-117.188;2023-05-09T04:45:32;99615.19;;;14.67;100.00
37848;BME280;23688;33.130;-117.188;2023-05-09T04:47:58;99602.72;;;14.57;100.00
37848;BME280;23688;33.130;-117.188;2023-05-09T04:50:25;99607.22;;;14.63;100.00
37848;BME280;23688;33.130;-117.188;2023-05-09T04:52:51;99604.59;;;14.63;100.00
37848;BME280;23688;33.130;-117.188;2023-05-09T04:55:18;99599.47;;;14.66;100.00
37848;BME280;23688;33.130;-117.188;2023-05-09T04:57:44;99592.44;;;14.63;100.00
37848;BME280;23688;33.130;-117.188;2023-05-09T05:00:11;99594.88;;;14.57;100.00
37848;BME280;23688;33.130;-117.188;2023-05-09T05:02:37;99597.56;;;14.60;100.00
37848;BME280;23688;33.130;-117.188;2023-05-09T05:05:07;99591.22;;;14.52;100.00
37848;BME280;23688;33.130;-117.188;2023-05-09T05:07:33;99606.03;;;14.51;100.00
37848;BME280;23688;33.130;-117.188;2023-05-09T05:09:59;99606.72;;;14.46;100.00
37848;BME280;23688;33.130;-117.188;2023-05-09T05:12:26;99604.09;;;14.44;99.29
37848;BME280;23688;33.130;-117.188;2023-05-09T05:14:52;99597.88;;;14.41;99.15
37848;BME280;23688;33.130;-117.188;2023-05-09T05:17:18;99602.91;;;14.33;98.90
37848;BME280;23688;33.130;-117.188;2023-05-09T05:19:49;99600.94;;;14.26;98.91
37848;BME280;23688;33.130;-117.188;2023-05-09T05:22:16;99588.56;;;14.19;99.04
37848;BME280;23688;33.130;-117.188;2023-05-09T05:24:42;99600.53;;;14.10;99.04
37848;BME280;23688;33.130;-117.188;2023-05-09T05:27:08;99600.31;;;14.03;99.24
37848;BME280;23688;33.130;-117.188;2023-05-09T05:29:35;99605.38;;;13.98;99.38
37848;BME280;23688;33.130;-117.188;2023-05-09T05:32:01;99600.16;;;13.98;99.45
37848;BME280;23688;33.130;-117.188;2023-05-09T05:34:27;99609.69;;;13.96;99.38
37848;BME280;23688;33.130;-117.188;2023-05-09T05:36:53;99606.97;;;13.93;99.49
37848;BME280;23688;33.130;-117.188;2023-05-09T05:39:20;99617.28;;;13.88;99.62
37848;BME280;23688;33.130;-117.188;2023-05-09T05:41:46;99618.78;;;13.80;100.00
37848;BME280;23688;33.130;-117.188;2023-05-09T05:44:12;99609.78;;;13.70;100.00
37848;BME280;23688;33.130;-117.188;2023-05-09T05:46:39;99613.28;;;13.71;100.00
37848;BME280;23688;33.130;-117.188;2023-05-09T05:49:05;99610.63;;;13.69;100.00
37848;BME280;23688;33.130;-117.188;2023-05-09T05:51:32;99606.34;;;13.72;100.00
37848;BME280;23688;33.130;-117.188;2023-05-09T05:53:58;99611.63;;;13.75;100.00
37848;BME280;23688;33.130;-117.188;2023-05-09T05:56:25;99611.75;;;13.78;100.00
37848;BME280;23688;33.130;-117.188;2023-05-09T05:58:52;99607.41;;;13.78;100.00
37848;BME280;23688;33.130;-117.188;2023-05-09T06:01:19;99620.53;;;13.81;100.00
37848;BME280;23688;33.130;-117.188;2023-05-09T06:03:46;99617.06;;;13.81;100.00
37848;BME280;23688;33.130;-117.188;2023-05-09T06:06:14;99616.84;;;13.73;100.00
37848;BME280;23688;33.130;-117.188;2023-05-09T06:08:40;99608.75;;;13.65;100.00
37848;BME280;23688;33.130;-117.188;2023-05-09T06:11:06;99616.19;;;13.53;100.00
37848;BME280;23688;33.130;-117.188;2023-05-09T06:13:33;99608.81;;;13.40;100.00
37848;BME280;23688;33.130;-117.188;2023-05-09T06:15:59;99610.44;;;13.36;100.00
37848;BME280;23688;33.130;-117.188;2023-05-09T06:18:25;99601.50;;;13.28;100.00
37848;BME280;23688;33.130;-117.188;2023-05-09T06:20:52;99609.09;;;13.22;100.00
37848;BME280;23688;33.130;-117.188;2023-05-09T06:23:18;99616.88;;;13.20;100.00
37848;BME280;23688;33.130;-117.188;2023-05-09T06:25:47;99615.19;;;13.22;100.00
37848;BME280;23688;33.130;-117.188;2023-05-09T06:28:14;99620.41;;;13.22;100.00
37848;BME280;23688;33.130;-117.188;2023-05-09T06:30:40;99611.56;;;13.17;100.00
37848;BME280;23688;33.130;-117.188;2023-05-09T06:33:06;99615.22;;;13.24;100.00
37848;BME280;23688;33.130;-117.188;2023-05-09T06:35:32;99616.25;;;13.27;100.00
37848;BME280;23688;33.130;-117.188;2023-05-09T06:37:59;99608.19;;;13.21;100.00
37848;BME280;23688;33.130;-117.188;2023-05-09T06:40:25;99606.34;;;13.17;100.00
37848;BME280;23688;33.130;-117.188;2023-05-09T06:42:51;99612.53;;;13.21;100.00
37848;BME280;23688;33.130;-117.188;2023-05-09T06:45:18;99616.06;;;13.23;100.00
37848;BME280;23688;33.130;-117.188;2023-05-09T06:47:44;99618.00;;;13.27;100.00
37848;BME280;23688;33.130;-117.188;2023-05-09T06:50:10;99602.19;;;13.24;100.00
37848;BME280;23688;33.130;-117.188;2023-05-09T06:52:37;99606.91;;;13.34;100.00
37848;BME280;23688;33.130;-117.188;2023-05-09T06:55:03;99610.41;;;13.35;100.00
37848;BME280;23688;33.130;-117.188;2023-05-09T06:57:30;99613.97;;;13.38;100.00
37848;BME280;23688;33.130;-117.188;2023-05-09T06:59:56;99619.25;;;13.40;100.00
37848;BME280;23688;33.130;-117.188;2023-05-09T07:02:23;99607.00;;;13.37;100.00
37848;BME280;23688;33.130;-117.188;2023-05-09T07:04:49;99611.38;;;13.38;100.00
37848;BME280;23688;33.130;-117.188;2023-05-09T07:07:16;99617.44;;;13.37;100.00
37848;BME280;23688;33.130;-117.188;2023-05-09T07:09:42;99591.00;;;13.26;100.00
37848;BME280;23688;33.130;-117.188;2023-05-09T07:12:09;99610.50;;;13.38;100.00
37848;BME280;23688;33.130;-117.188;2023-05-09T07:14:35;99613.16;;;13.39;100.00
37848;BME280;23688;33.130;-117.188;2023-05-09T07:17:01;99621.09;;;13.42;100.00
37848;BME280;23688;33.130;-117.188;2023-05-09T07:19:27;99592.88;;;13.31;100.00
37848;BME280;23688;33.130;-117.188;2023-05-09T07:21:54;99616.66;;;13.40;100.00
37848;BME280;23688;33.130;-117.188;2023-05-09T07:24:20;99610.94;;;13.26;100.00
37848;BME280;23688;33.130;-117.188;2023-05-09T07:26:47;99612.00;;;13.30;100.00
37848;BME280;23688;33.130;-117.188;2023-05-09T07:29:13;99608.44;;;13.27;100.00
37848;BME280;23688;33.130;-117.188;2023-05-09T07:31:39;99609.09;;;13.22;100.00
37848;BME280;23688;33.130;-117.188;2023-05-09T07:34:06;99608.00;;;13.15;100.00
37848;BME280;23688;33.130;-117.188;2023-05-09T07:36:32;99588.31;;;12.98;100.00
37848;BME280;23688;33.130;-117.188;2023-05-09T07:38:59;99598.91;;;13.02;100.00
37848;BME280;23688;33.130;-117.188;2023-05-09T07:41:26;99600.59;;;13.02;100.00
37848;BME280;23688;33.130;-117.188;2023-05-09T07:43:52;99602.19;;;12.97;100.00
37848;BME280;23688;33.130;-117.188;2023-05-09T07:46:18;99594.19;;;12.92;100.00
37848;BME280;23688;33.130;-117.188;2023-05-09T07:48:44;99591.56;;;12.91;100.00
37848;BME280;23688;33.130;-117.188;2023-05-09T07:51:11;99588.00;;;12.89;100.00
37848;BME280;23688;33.130;-117.188;2023-05-09T07:53:37;99589.59;;;12.83;100.00
37848;BME280;23688;33.130;-117.188;2023-05-09T07:56:04;99594.69;;;12.80;100.00
37848;BME280;23688;33.130;-117.188;2023-05-09T07:58:31;99584.13;;;12.76;100.00
37848;BME280;23688;33.130;-117.188;2023-05-09T08:00:58;99585.94;;;12.78;100.00
37848;BME280;23688;33.130;-117.188;2023-05-09T08:03:24;99585.16;;;12.81;100.00
37848;BME280;23688;33.130;-117.188;2023-05-09T08:05:54;99589.59;;;12.83;100.00
37848;BME280;23688;33.130;-117.188;2023-05-09T08:08:21;99590.56;;;12.87;100.00
37848;BME280;23688;33.130;-117.188;2023-05-09T08:10:48;99588.09;;;12.92;100.00
37848;BME280;23688;33.130;-117.188;2023-05-09T08:13:14;99585.81;;;13.01;100.00
37848;BME280;23688;33.130;-117.188;2023-05-09T08:15:40;99579.97;;;13.08;100.00
37848;BME280;23688;33.130;-117.188;2023-05-09T08:18:07;99581.00;;;13.13;100.00
37848;BME280;23688;33.130;-117.188;2023-05-09T08:20:33;99575.72;;;13.12;100.00
37848;BME280;23688;33.130;-117.188;2023-05-09T08:22:59;99578.94;;;13.03;100.00
37848;BME280;23688;33.130;-117.188;2023-05-09T08:25:26;99579.56;;;12.96;100.00
37848;BME280;23688;33.130;-117.188;2023-05-09T08:27:52;99571.66;;;12.93;100.00
37848;BME280;23688;33.130;-117.188;2023-05-09T08:30:18;99561.88;;;12.85;100.00
37848;BME280;23688;33.130;-117.188;2023-05-09T08:32:45;99574.44;;;12.99;100.00
37848;BME280;23688;33.130;-117.188;2023-05-09T08:35:11;99576.50;;;13.09;100.00
37848;BME280;23688;33.130;-117.188;2023-05-09T08:37:37;99567.00;;;13.10;100.00
37848;BME280;23688;33.130;-117.188;2023-05-09T08:40:04;99560.78;;;13.06;100.00
37848;BME280;23688;33.130;-117.188;2023-05-09T08:42:36;99576.56;;;13.11;100.00
37848;BME280;23688;33.130;-117.188;2023-05-09T08:45:10;99566.94;;;13.08;100.00
37848;BME280;23688;33.130;-117.188;2023-05-09T08:47:39;99549.41;;;13.04;100.00
37848;BME280;23688;33.130;-117.188;2023-05-09T08:50:08;99553.03;;;13.07;100.00
37848;BME280;23688;33.130;-117.188;2023-05-09T08:52:35;99559.22;;;13.11;100.00
37848;BME280;23688;33.130;-117.188;2023-05-09T08:55:02;99548.78;;;13.11;100.00
37848;BME280;23688;33.130;-117.188;2023-05-09T08:57:34;99556.59;;;13.11;100.00
37848;BME280;23688;33.130;-117.188;2023-05-09T09:00:02;99545.28;;;13.11;100.00
37848;BME280;23688;33.130;-117.188;2023-05-09T09:02:34;99538.25;;;13.08;100.00
37848;BME280;23688;33.130;-117.188;2023-05-09T09:05:02;99543.72;;;13.16;100.00
37848;BME280;23688;33.130;-117.188;2023-05-09T09:07:29;99543.00;;;13.21;100.00
37848;BME280;23688;33.130;-117.188;2023-05-09T09:09:59;99536.13;;;13.23;100.00
37848;BME280;23688;33.130;-117.188;2023-05-09T09:12:25;99543.25;;;13.27;100.00
37848;BME280;23688;33.130;-117.188;2023-05-09T09:14:53;99522.13;;;13.20;100.00
37848;BME280;23688;33.130;-117.188;2023-05-09T09:17:24;99538.09;;;13.29;100.00
37848;BME280;23688;33.130;-117.188;2023-05-09T09:19:55;99524.50;;;13.12;100.00
37848;BME280;23688;33.130;-117.188;2023-05-09T09:22:29;99528.13;;;13.17;100.00
37848;BME280;23688;33.130;-117.188;2023-05-09T09:24:59;99527.53;;;13.26;100.00
37848;BME280;23688;33.130;-117.188;2023-05-09T09:27:26;99528.63;;;13.33;100.00
37848;BME280;23688;33.130;-117.188;2023-05-09T09:29:53;99527.00;;;13.36;100.00
37848;BME280;23688;33.130;-117.188;2023-05-09T09:32:19;99520.22;;;13.41;100.00
37848;BME280;23688;33.130;-117.188;2023-05-09T09:34:50;99508.84;;;13.39;100.00
37848;BME280;23688;33.130;-117.188;2023-05-09T09:37:33;99517.03;;;13.52;100.00
37848;BME280;23688;33.130;-117.188;2023-05-09T09:40:00;99521.50;;;13.56;100.00
37848;BME280;23688;33.130;-117.188;2023-05-09T09:42:39;99511.84;;;13.53;100.00
37848;BME280;23688;33.130;-117.188;2023-05-09T09:45:11;99525.84;;;13.55;100.00
37848;BME280;23688;33.130;-117.188;2023-05-09T09:47:39;99539.81;;;13.57;100.00
37848;BME280;23688;33.130;-117.188;2023-05-09T09:50:12;99524.94;;;13.55;100.00
37848;BME280;23688;33.130;-117.188;2023-05-09T09:52:56;99528.41;;;13.54;100.00
37848;BME280;23688;33.130;-117.188;2023-05-09T09:55:25;99519.50;;;13.47;100.00
37848;BME280;23688;33.130;-117.188;2023-05-09T09:57:54;99515.97;;;13.45;100.00
37848;BME280;23688;33.130;-117.188;2023-05-09T10:00:25;99532.91;;;13.59;100.00
37848;BME280;23688;33.130;-117.188;2023-05-09T10:02:57;99524.91;;;13.53;100.00
37848;BME280;23688;33.130;-117.188;2023-05-09T10:05:24;99527.69;;;13.59;100.00
37848;BME280;23688;33.130;-117.188;2023-05-09T10:07:55;99523.44;;;13.63;100.00
37848;BME280;23688;33.130;-117.188;2023-05-09T10:10:30;99534.16;;;13.72;100.00
37848;BME280;23688;33.130;-117.188;2023-05-09T10:12:58;99541.25;;;13.76;100.00
37848;BME280;23688;33.130;-117.188;2023-05-09T10:15:27;99540.44;;;13.79;100.00
37848;BME280;23688;33.130;-117.188;2023-05-09T10:17:55;99541.41;;;13.82;100.00
37848;BME280;23688;33.130;-117.188;2023-05-09T10:20:22;99540.50;;;13.80;100.00
37848;BME280;23688;33.130;-117.188;2023-05-09T10:22:51;99540.59;;;13.85;100.00
37848;BME280;23688;33.130;-117.188;2023-05-09T10:25:20;99543.34;;;13.89;100.00
37848;BME280;23688;33.130;-117.188;2023-05-09T10:27:47;99540.06;;;13.95;100.00
37848;BME280;23688;33.130;-117.188;2023-05-09T10:30:18;99531.44;;;13.98;100.00
37848;BME280;23688;33.130;-117.188;2023-05-09T10:33:02;99538.47;;;14.02;100.00
37848;BME280;23688;33.130;-117.188;2023-05-09T10:35:31;99527.97;;;13.99;100.00
37848;BME280;23688;33.130;-117.188;2023-05-09T10:37:59;99536.81;;;14.04;100.00
37848;BME280;23688;33.130;-117.188;2023-05-09T10:40:30;99520.97;;;13.98;100.00
37848;BME280;23688;33.130;-117.188;2023-05-09T10:42:57;99531.78;;;14.10;100.00
37848;BME280;23688;33.130;-117.188;2023-05-09T10:45:23;99539.53;;;14.08;100.00
37848;BME280;23688;33.130;-117.188;2023-05-09T10:47:51;99531.78;;;14.10;100.00
37848;BME280;23688;33.130;-117.188;2023-05-09T10:50:21;99520.44;;;14.09;100.00
37848;BME280;23688;33.130;-117.188;2023-05-09T10:55:53;99536.44;;;14.22;100.00
37848;BME280;23688;33.130;-117.188;2023-05-09T11:00:48;99530.38;;;14.23;100.00
37848;BME280;23688;33.130;-117.188;2023-05-09T11:03:15;99527.84;;;14.26;100.00
37848;BME280;23688;33.130;-117.188;2023-05-09T11:05:45;99517.19;;;14.18;100.00
37848;BME280;23688;33.130;-117.188;2023-05-09T11:10:47;99513.84;;;14.24;100.00
37848;BME280;23688;33.130;-117.188;2023-05-09T11:13:18;99516.50;;;14.25;100.00
37848;BME280;23688;33.130;-117.188;2023-05-09T11:18:31;99518.19;;;14.23;100.00
37848;BME280;23688;33.130;-117.188;2023-05-09T11:20:58;99516.44;;;14.24;100.00
37848;BME280;23688;33.130;-117.188;2023-05-09T11:23:26;99513.81;;;14.22;100.00
37848;BME280;23688;33.130;-117.188;2023-05-09T11:25:53;99519.94;;;14.23;100.00
37848;BME280;23688;33.130;-117.188;2023-05-09T11:28:30;99519.00;;;14.21;100.00
37848;BME280;23688;33.130;-117.188;2023-05-09T11:31:17;99521.69;;;14.24;100.00
37848;BME280;23688;33.130;-117.188;2023-05-09T11:33:45;99517.25;;;14.20;100.00
37848;BME280;23688;33.130;-117.188;2023-05-09T11:36:30;99513.84;;;14.24;100.00
37848;BME280;23688;33.130;-117.188;2023-05-09T11:39:04;99525.41;;;14.32;100.00
37848;BME280;23688;33.130;-117.188;2023-05-09T11:41:38;99511.47;;;14.31;100.00
37848;BME280;23688;33.130;-117.188;2023-05-09T11:44:15;99509.75;;;14.33;100.00
37848;BME280;23688;33.130;-117.188;2023-05-09T11:46:42;99526.41;;;14.37;100.00
37848;BME280;23688;33.130;-117.188;2023-05-09T11:49:09;99521.31;;;14.42;100.00
37848;BME280;23688;33.130;-117.188;2023-05-09T11:51:36;99517.00;;;14.44;100.00
37848;BME280;23688;33.130;-117.188;2023-05-09T11:54:04;99518.72;;;14.43;100.00
37848;BME280;23688;33.130;-117.188;2023-05-09T11:56:31;99528.41;;;14.47;100.00
37848;BME280;23688;33.130;-117.188;2023-05-09T11:58:58;99509.06;;;14.39;100.00
37848;BME280;23688;33.130;-117.188;2023-05-09T12:01:24;99517.09;;;14.47;100.00
37848;BME280;23688;33.130;-117.188;2023-05-09T12:03:51;99522.25;;;14.45;100.00
37848;BME280;23688;33.130;-117.188;2023-05-09T12:06:18;99514.22;;;14.38;100.00
37848;BME280;23688;33.130;-117.188;2023-05-09T12:08:45;99525.59;;;14.40;100.00
37848;BME280;23688;33.130;-117.188;2023-05-09T12:11:13;99514.88;;;14.29;100.00
37848;BME280;23688;33.130;-117.188;2023-05-09T12:13:50;99515.69;;;14.28;99.15
37848;BME280;23688;33.130;-117.188;2023-05-09T12:16:18;99512.28;;;14.29;98.92
37848;BME280;23688;33.130;-117.188;2023-05-09T12:18:51;99507.19;;;14.35;99.11
37848;BME280;23688;33.130;-117.188;2023-05-09T12:21:19;99502.91;;;14.39;99.15
37848;BME280;23688;33.130;-117.188;2023-05-09T12:23:46;99502.91;;;14.37;99.34
37848;BME280;23688;33.130;-117.188;2023-05-09T12:26:13;99505.44;;;14.34;99.40
37848;BME280;23688;33.130;-117.188;2023-05-09T12:28:39;99499.09;;;14.24;99.24
37848;BME280;23688;33.130;-117.188;2023-05-09T12:31:06;99508.59;;;14.22;98.97
37848;BME280;23688;33.130;-117.188;2023-05-09T12:33:33;99516.44;;;14.22;98.66
37848;BME280;23688;33.130;-117.188;2023-05-09T12:36:08;99509.28;;;14.17;99.42
37848;BME280;23688;33.130;-117.188;2023-05-09T12:38:36;99516.38;;;14.19;100.00
37848;BME280;23688;33.130;-117.188;2023-05-09T12:41:06;99531.13;;;14.19;100.00
37848;BME280;23688;33.130;-117.188;2023-05-09T12:43:34;99530.25;;;14.18;100.00
37848;BME280;23688;33.130;-117.188;2023-05-09T12:46:02;99527.50;;;14.13;100.00
37848;BME280;23688;33.130;-117.188;2023-05-09T12:48:33;99538.03;;;14.17;99.87
37848;BME280;23688;33.130;-117.188;2023-05-09T12:51:06;99523.94;;;14.10;99.44